createdAt,value
2023-05-14T00:02:00.689Z,95785.00
2023-05-14T00:04:46.385Z,95784.00
2023-05-14T00:07:32.624Z,95785.00
2023-05-14T00:10:22.024Z,95777.00
2023-05-14T00:13:07.974Z,95775.00
2023-05-14T00:15:53.759Z,95775.00
2023-05-14T00:18:41.014Z,95774.00
2023-05-14T00:21:26.756Z,95774.00
2023-05-14T00:24:12.571Z,95772.00
2023-05-14T00:26:58.097Z,95775.00
2023-05-14T00:29:43.611Z,95759.00
2023-05-14T00:32:29.407Z,95756.00
2023-05-14T00:35:15.961Z,95757.00
2023-05-14T00:38:04.133Z,95760.00
2023-05-14T00:40:52.114Z,95755.00
2023-05-14T00:43:40.000Z,95761.00
2023-05-14T00:46:26.510Z,95759.00
2023-05-14T00:49:12.618Z,95761.00
2023-05-14T00:52:00.699Z,95758.00
2023-05-14T00:54:48.265Z,95765.00
2023-05-14T00:57:37.949Z,95756.00
2023-05-14T01:00:26.204Z,95753.00
2023-05-14T01:03:12.409Z,95744.00
2023-05-14T01:06:29.876Z,95747.00
2023-05-14T01:09:55.956Z,95752.00
2023-05-14T01:13:10.844Z,95753.00
2023-05-14T01:15:58.579Z,95747.00
2023-05-14T01:18:46.689Z,95748.00
2023-05-14T01:21:43.527Z,95755.00
2023-05-14T01:24:29.080Z,95751.00
2023-05-14T01:28:00.575Z,95753.00
2023-05-14T01:30:52.971Z,95748.00
2023-05-14T01:33:43.600Z,95748.00
2023-05-14T01:36:30.007Z,95749.00
2023-05-14T01:39:19.814Z,95746.00
2023-05-14T01:42:09.055Z,95758.00
2023-05-14T01:44:57.388Z,95756.00
2023-05-14T01:47:43.748Z,95752.00
2023-05-14T01:50:29.617Z,95747.00
2023-05-14T01:53:15.380Z,95748.00
2023-05-14T01:56:03.776Z,95740.00
2023-05-14T01:58:50.338Z,95744.00
2023-05-14T02:01:36.348Z,95741.00
2023-05-14T02:04:22.417Z,95743.00
2023-05-14T02:07:08.648Z,95739.00
2023-05-14T02:09:55.055Z,95743.00
2023-05-14T02:12:41.617Z,95738.00
2023-05-14T02:15:27.565Z,95734.00
2023-05-14T02:18:13.616Z,95739.00
2023-05-14T02:20:59.421Z,95740.00
2023-05-14T02:23:45.575Z,95748.00
2023-05-14T02:26:31.237Z,95736.00
2023-05-14T02:29:17.660Z,95739.00
2023-05-14T02:32:04.186Z,95734.00
2023-05-14T02:34:50.124Z,95730.00
2023-05-14T02:37:38.684Z,95732.00
2023-05-14T02:40:24.967Z,95729.00
2023-05-14T02:43:14.764Z,95729.00
2023-05-14T02:46:01.576Z,95733.00
2023-05-14T02:48:47.331Z,95730.00
2023-05-14T02:51:33.146Z,95725.00
2023-05-14T02:54:18.623Z,95732.00
2023-05-14T02:57:05.522Z,95723.00
2023-05-14T02:59:51.745Z,95728.00
2023-05-14T03:02:38.915Z,95728.00
2023-05-14T03:05:25.767Z,95722.00
2023-05-14T03:08:11.803Z,95723.00
2023-05-14T03:10:58.853Z,95721.00
2023-05-14T03:13:44.745Z,95723.00
2023-05-14T03:16:30.900Z,95718.00
2023-05-14T03:19:17.836Z,95715.00
2023-05-14T03:22:04.376Z,95711.00
2023-05-14T03:24:49.774Z,95716.00
2023-05-14T03:27:35.353Z,95708.00
2023-05-14T03:30:23.041Z,95710.00
2023-05-14T03:33:08.818Z,95715.00
2023-05-14T03:35:55.812Z,95706.00
2023-05-14T03:38:43.052Z,95718.00
2023-05-14T03:41:28.787Z,95727.00
2023-05-14T03:44:15.151Z,95720.00
2023-05-14T03:47:01.239Z,95726.00
2023-05-14T03:49:47.532Z,95717.00
2023-05-14T03:52:34.118Z,95719.00
2023-05-14T03:55:22.286Z,95715.00
2023-05-14T03:58:13.650Z,95705.00
2023-05-14T04:01:00.505Z,95714.00
2023-05-14T04:03:46.585Z,95707.00
2023-05-14T04:06:36.238Z,95708.00
2023-05-14T04:09:22.325Z,95708.00
2023-05-14T04:12:08.976Z,95705.00
2023-05-14T04:14:55.020Z,95705.00
2023-05-14T04:17:40.448Z,95704.00
2023-05-14T04:20:26.467Z,95707.00
2023-05-14T04:23:12.766Z,95704.00
2023-05-14T04:25:59.178Z,95700.00
2023-05-14T04:28:47.376Z,95698.00
2023-05-14T04:31:34.179Z,95704.00
2023-05-14T04:34:19.960Z,95698.00
2023-05-14T04:37:05.536Z,95704.00
2023-05-14T04:39:51.465Z,95707.00
2023-05-14T04:42:38.865Z,95702.00
2023-05-14T04:45:24.752Z,95710.00
2023-05-14T04:48:10.607Z,95696.00
2023-05-14T04:50:56.704Z,95704.00
2023-05-14T04:53:43.487Z,95703.00
2023-05-14T04:56:28.998Z,95705.00
2023-05-14T04:59:14.675Z,95699.00
2023-05-14T05:02:00.403Z,95704.00
2023-05-14T05:04:47.413Z,95702.00
2023-05-14T05:07:33.119Z,95707.00
2023-05-14T05:10:19.442Z,95716.00
2023-05-14T05:13:06.201Z,95705.00
2023-05-14T05:15:53.006Z,95706.00
2023-05-14T05:18:39.299Z,95706.00
2023-05-14T05:21:24.951Z,95711.00
2023-05-14T05:24:10.732Z,95706.00
2023-05-14T05:26:56.631Z,95703.00
2023-05-14T05:29:45.024Z,95699.00
2023-05-14T05:32:31.346Z,95700.00
2023-05-14T05:35:19.888Z,95698.00
2023-05-14T05:38:07.263Z,95705.00
2023-05-14T05:40:53.128Z,95699.00
2023-05-14T05:43:39.473Z,95705.00
2023-05-14T05:46:25.455Z,95696.00
2023-05-14T05:49:11.574Z,95702.00
2023-05-14T05:51:57.546Z,95696.00
2023-05-14T05:54:43.096Z,95696.00
2023-05-14T05:57:28.717Z,95705.00
2023-05-14T06:00:15.379Z,95695.00
2023-05-14T06:03:01.611Z,95701.00
2023-05-14T06:05:50.090Z,95701.00
2023-05-14T06:08:36.804Z,95705.00
2023-05-14T06:11:25.665Z,95692.00
2023-05-14T06:14:12.725Z,95702.00
2023-05-14T06:17:00.530Z,95714.00
2023-05-14T06:19:46.697Z,95707.00
2023-05-14T06:22:33.196Z,95720.00
2023-05-14T06:25:22.166Z,95718.00
2023-05-14T06:28:08.021Z,95719.00
2023-05-14T06:30:56.673Z,95719.00
2023-05-14T06:33:45.629Z,95707.00
2023-05-14T06:36:31.496Z,95716.00
2023-05-14T06:39:17.091Z,95710.00
2023-05-14T06:42:02.663Z,95715.00
2023-05-14T06:44:49.648Z,95714.00
2023-05-14T06:47:35.446Z,95726.00
2023-05-14T06:50:21.676Z,95714.00
2023-05-14T06:53:07.455Z,95716.00
2023-05-14T06:55:52.985Z,95719.00
2023-05-14T06:58:38.752Z,95706.00
2023-05-14T07:01:24.344Z,95709.00
2023-05-14T07:04:10.174Z,95719.00
2023-05-14T07:06:56.297Z,95704.00
2023-05-14T07:09:42.830Z,95707.00
2023-05-14T07:12:29.426Z,95706.00
2023-05-14T07:15:16.205Z,95715.00
2023-05-14T07:18:02.295Z,95714.00
2023-05-14T07:20:48.066Z,95717.00
2023-05-14T07:23:41.737Z,95717.00
2023-05-14T07:26:27.801Z,95717.00
2023-05-14T07:29:13.845Z,95721.00
2023-05-14T07:31:59.852Z,95726.00
2023-05-14T07:34:46.471Z,95723.00
2023-05-14T07:37:33.459Z,95716.00
2023-05-14T07:40:19.461Z,95717.00
2023-05-14T07:43:05.120Z,95714.00
2023-05-14T07:45:56.072Z,95707.00
2023-05-14T07:48:42.061Z,95716.00
2023-05-14T07:51:28.591Z,95711.00
2023-05-14T07:54:14.516Z,95708.00
2023-05-14T07:57:00.445Z,95708.00
2023-05-14T07:59:46.614Z,95711.00
2023-05-14T08:02:35.247Z,95711.00
2023-05-14T08:05:22.407Z,95708.00
2023-05-14T08:08:08.231Z,95703.00
2023-05-14T08:10:54.523Z,95710.00
2023-05-14T08:13:40.776Z,95704.00
2023-05-14T08:16:26.841Z,95705.00
2023-05-14T08:19:14.535Z,95702.00
2023-05-14T08:22:00.581Z,95701.00
2023-05-14T08:24:46.987Z,95702.00
2023-05-14T08:27:33.431Z,95699.00
2023-05-14T08:30:19.584Z,95695.00
2023-05-14T08:33:07.035Z,95692.00
2023-05-14T08:35:56.293Z,95695.00
2023-05-14T08:38:42.663Z,95697.00
2023-05-14T08:41:28.549Z,95696.00
2023-05-14T08:44:19.864Z,95698.00
2023-05-14T08:47:24.979Z,95690.00
2023-05-14T08:50:11.915Z,95688.00
2023-05-14T08:53:01.372Z,95687.00
2023-05-14T08:55:55.004Z,95694.00
2023-05-14T08:58:41.284Z,95697.00
2023-05-14T09:01:29.611Z,95685.00
2023-05-14T09:04:29.695Z,95686.00
2023-05-14T09:07:16.974Z,95677.00
2023-05-14T09:10:12.181Z,95685.00
2023-05-14T09:13:13.943Z,95691.00
2023-05-14T09:16:01.515Z,95681.00
2023-05-14T09:18:54.587Z,95670.00
2023-05-14T09:22:33.719Z,95674.00
2023-05-14T09:25:21.068Z,95669.00
2023-05-14T09:28:12.810Z,95665.00
2023-05-14T09:30:59.756Z,95668.00
2023-05-14T09:33:55.879Z,95660.00
2023-05-14T09:36:49.542Z,95667.00
2023-05-14T09:39:39.034Z,95672.00
2023-05-14T09:42:25.098Z,95664.00
2023-05-14T09:45:20.237Z,95661.00
2023-05-14T09:48:11.297Z,95654.00
2023-05-14T09:50:57.585Z,95655.00
2023-05-14T09:53:47.767Z,95660.00
2023-05-14T09:56:35.650Z,95661.00
2023-05-14T09:59:27.185Z,95654.00
2023-05-14T10:02:41.634Z,95648.00
2023-05-14T10:05:32.140Z,95658.00
2023-05-14T10:08:35.444Z,95650.00
2023-05-14T10:11:26.010Z,95645.00
2023-05-14T10:14:27.319Z,95656.00
2023-05-14T10:17:18.591Z,95647.00
2023-05-14T10:20:09.614Z,95650.00
2023-05-14T10:22:56.655Z,95652.00
2023-05-14T10:25:43.083Z,95649.00
2023-05-14T10:28:29.556Z,95645.00
2023-05-14T10:31:15.903Z,95646.00
2023-05-14T10:34:02.478Z,95642.00
2023-05-14T10:36:49.008Z,95647.00
2023-05-14T10:39:46.945Z,95637.00
2023-05-14T10:42:43.602Z,95635.00
2023-05-14T10:45:30.828Z,95632.00
2023-05-14T10:48:17.687Z,95628.00
2023-05-14T10:51:05.291Z,95624.00
2023-05-14T10:54:02.074Z,95621.00
2023-05-14T10:56:50.868Z,95614.00
2023-05-14T10:59:46.116Z,95606.00
2023-05-14T11:02:44.918Z,95602.00
2023-05-14T11:05:37.853Z,95603.00
2023-05-14T11:08:26.484Z,95605.00
2023-05-14T11:11:13.270Z,95604.00
2023-05-14T11:13:59.476Z,95601.00
2023-05-14T11:16:50.176Z,95608.00
2023-05-14T11:19:36.959Z,95601.00
2023-05-14T11:22:24.131Z,95604.00
2023-05-14T11:25:15.013Z,95599.00
2023-05-14T11:28:03.400Z,95594.00
2023-05-14T11:31:05.297Z,95602.00
2023-05-14T11:33:58.856Z,95603.00
2023-05-14T11:36:48.950Z,95594.00
2023-05-14T11:39:38.118Z,95596.00
2023-05-14T11:42:24.925Z,95589.00
2023-05-14T11:45:27.656Z,95584.00
2023-05-14T11:48:31.731Z,95579.00
2023-05-14T11:51:29.576Z,95579.00
2023-05-14T11:54:15.878Z,95579.00
2023-05-14T11:57:19.746Z,95576.00
2023-05-14T12:00:44.027Z,95584.00
2023-05-14T12:05:02.899Z,95570.00
2023-05-14T12:07:59.019Z,95563.00
2023-05-14T12:11:17.489Z,95563.00
2023-05-14T12:14:23.550Z,95554.00
2023-05-14T12:17:27.970Z,95556.00
2023-05-14T12:20:14.106Z,95554.00
2023-05-14T12:22:59.853Z,95547.00
2023-05-14T12:25:52.664Z,95545.00
2023-05-14T12:28:43.706Z,95541.00
2023-05-14T12:31:35.186Z,95538.00
2023-05-14T12:34:21.268Z,95544.00
2023-05-14T12:37:07.799Z,95542.00
2023-05-14T12:39:54.753Z,95536.00
2023-05-14T12:42:42.951Z,95536.00
2023-05-14T12:45:30.485Z,95531.00
2023-05-14T12:48:18.816Z,95527.00
2023-05-14T12:51:04.755Z,95539.00
2023-05-14T12:53:51.782Z,95529.00
2023-05-14T12:56:40.294Z,95525.00
2023-05-14T12:59:26.266Z,95538.00
2023-05-14T13:02:12.142Z,95531.00
2023-05-14T13:04:57.725Z,95520.00
2023-05-14T13:07:43.404Z,95515.00
2023-05-14T13:10:30.184Z,95514.00
2023-05-14T13:13:16.757Z,95510.00
2023-05-14T13:16:07.889Z,95512.00
2023-05-14T13:18:54.229Z,95503.00
2023-05-14T13:21:40.210Z,95502.00
2023-05-14T13:24:26.391Z,95500.00
2023-05-14T13:27:14.925Z,95492.00
2023-05-14T13:30:19.118Z,95499.00
2023-05-14T13:33:05.562Z,95494.00
2023-05-14T13:35:53.861Z,95491.00
2023-05-14T13:38:40.283Z,95500.00
2023-05-14T13:41:26.495Z,95501.00
2023-05-14T13:44:12.243Z,95498.00
2023-05-14T13:47:00.646Z,95486.00
2023-05-14T13:49:46.239Z,95496.00
2023-05-14T13:52:33.690Z,95492.00
2023-05-14T13:55:19.982Z,95498.00
2023-05-14T13:58:09.929Z,95498.00
2023-05-14T14:00:56.621Z,95498.00
2023-05-14T14:03:42.568Z,95501.00
2023-05-14T14:06:34.733Z,95513.00
2023-05-14T14:09:20.310Z,95504.00
2023-05-14T14:12:11.082Z,95510.00
2023-05-14T14:14:57.098Z,95511.00
2023-05-14T14:17:43.197Z,95515.00
2023-05-14T14:20:29.230Z,95507.00
2023-05-14T14:23:28.485Z,95508.00
2023-05-14T14:26:15.353Z,95497.00
2023-05-14T14:29:02.004Z,95504.00
2023-05-14T14:31:48.508Z,95497.00
2023-05-14T14:34:34.607Z,95485.00
2023-05-14T14:37:21.274Z,95490.00
2023-05-14T14:40:10.739Z,95481.00
2023-05-14T14:42:56.615Z,95491.00
2023-05-14T14:45:42.905Z,95490.00
2023-05-14T14:48:37.851Z,95488.00
2023-05-14T14:51:23.835Z,95488.00
2023-05-14T14:54:09.441Z,95491.00
2023-05-14T14:56:55.082Z,95495.00
2023-05-14T14:59:41.565Z,95488.00
2023-05-14T15:02:27.680Z,95491.00
2023-05-14T15:05:13.796Z,95498.00
2023-05-14T15:07:59.656Z,95502.00
2023-05-14T15:10:46.845Z,95511.00
2023-05-14T15:13:33.387Z,95504.00
2023-05-14T15:16:19.166Z,95495.00
2023-05-14T15:19:05.278Z,95478.00
2023-05-14T15:21:51.674Z,95491.00
2023-05-14T15:24:37.869Z,95490.00
2023-05-14T15:27:24.153Z,95494.00
2023-05-14T15:30:12.062Z,95490.00
2023-05-14T15:32:57.920Z,95487.00
2023-05-14T15:35:44.003Z,95492.00
2023-05-14T15:38:30.239Z,95486.00
2023-05-14T15:41:16.261Z,95486.00
2023-05-14T15:44:02.290Z,95480.00
2023-05-14T15:46:49.310Z,95471.00
2023-05-14T15:49:35.439Z,95482.00
2023-05-14T15:52:23.727Z,95486.00
2023-05-14T15:55:11.113Z,95487.00
2023-05-14T15:57:57.491Z,95480.00
2023-05-14T16:00:44.483Z,95472.00
2023-05-14T16:03:31.072Z,95478.00
2023-05-14T16:06:17.774Z,95484.00
2023-05-14T16:09:04.974Z,95477.00
2023-05-14T16:11:51.495Z,95474.00
2023-05-14T16:14:38.305Z,95478.00
2023-05-14T16:17:26.570Z,95482.00
2023-05-14T16:20:12.920Z,95484.00
2023-05-14T16:22:58.627Z,95476.00
2023-05-14T16:25:44.139Z,95471.00
2023-05-14T16:28:29.814Z,95469.00
2023-05-14T16:31:15.867Z,95465.00
2023-05-14T16:34:01.882Z,95474.00
2023-05-14T16:36:48.258Z,95472.00
2023-05-14T16:39:34.138Z,95471.00
2023-05-14T16:42:21.414Z,95467.00
2023-05-14T16:45:08.602Z,95471.00
2023-05-14T16:47:54.482Z,95461.00
2023-05-14T16:50:41.102Z,95447.00
2023-05-14T16:53:28.838Z,95463.00
2023-05-14T16:56:15.030Z,95454.00
2023-05-14T16:59:01.000Z,95454.00
2023-05-14T17:01:48.853Z,95445.00
2023-05-14T17:04:38.940Z,95450.00
2023-05-14T17:07:25.129Z,95449.00
2023-05-14T17:10:12.166Z,95463.00
2023-05-14T17:12:58.138Z,95465.00
2023-05-14T17:15:44.446Z,95450.00
2023-05-14T17:18:30.743Z,95450.00
2023-05-14T17:21:17.736Z,95463.00
2023-05-14T17:24:05.518Z,95464.00
2023-05-14T17:26:51.652Z,95463.00
2023-05-14T17:29:37.683Z,95463.00
2023-05-14T17:32:26.220Z,95477.00
2023-05-14T17:35:12.074Z,95480.00
2023-05-14T17:37:59.963Z,95477.00
2023-05-14T17:40:46.650Z,95487.00
2023-05-14T17:43:35.210Z,95488.00
2023-05-14T17:46:21.618Z,95491.00
2023-05-14T17:49:07.446Z,95495.00
2023-05-14T17:52:00.854Z,95496.00
2023-05-14T17:54:46.641Z,95507.00
2023-05-14T17:57:35.217Z,95502.00
2023-05-14T18:00:23.630Z,95502.00
2023-05-14T18:03:09.450Z,95503.00
2023-05-14T18:05:55.300Z,95512.00
2023-05-14T18:08:41.119Z,95502.00
2023-05-14T18:11:33.006Z,95509.00
2023-05-14T18:14:19.242Z,95510.00
2023-05-14T18:17:06.479Z,95505.00
2023-05-14T18:19:53.441Z,95505.00
2023-05-14T18:22:39.733Z,95509.00
2023-05-14T18:25:26.479Z,95512.00
2023-05-14T18:28:12.759Z,95506.00
2023-05-14T18:30:58.617Z,95504.00
2023-05-14T18:33:44.511Z,95509.00
2023-05-14T18:36:30.455Z,95506.00
2023-05-14T18:39:16.451Z,95504.00
2023-05-14T18:42:03.246Z,95511.00
2023-05-14T18:44:49.324Z,95509.00
2023-05-14T18:47:35.921Z,95509.00
2023-05-14T18:50:22.088Z,95506.00
2023-05-14T18:53:08.606Z,95513.00
2023-05-14T18:55:54.958Z,95520.00
2023-05-14T18:58:43.183Z,95523.00
2023-05-14T19:01:29.906Z,95522.00
2023-05-14T19:04:18.758Z,95526.00
2023-05-14T19:07:06.579Z,95522.00
2023-05-14T19:09:53.586Z,95528.00
2023-05-14T19:12:42.794Z,95524.00
2023-05-14T19:15:28.630Z,95522.00
2023-05-14T19:18:14.503Z,95528.00
2023-05-14T19:21:00.668Z,95534.00
2023-05-14T19:23:48.151Z,95533.00
2023-05-14T19:26:34.837Z,95535.00
2023-05-14T19:29:21.908Z,95544.00
2023-05-14T19:32:09.271Z,95544.00
2023-05-14T19:34:55.573Z,95537.00
2023-05-14T19:37:43.650Z,95545.00
2023-05-14T19:40:29.394Z,95551.00
2023-05-14T19:43:15.856Z,95544.00
2023-05-14T19:46:02.762Z,95535.00
2023-05-14T19:48:49.309Z,95542.00
2023-05-14T19:51:35.004Z,95537.00
2023-05-14T19:54:20.645Z,95532.00
2023-05-14T19:57:06.777Z,95535.00
2023-05-14T19:59:52.988Z,95530.00
2023-05-14T20:02:41.981Z,95535.00
2023-05-14T20:05:28.437Z,95539.00
2023-05-14T20:08:14.449Z,95543.00
2023-05-14T20:11:00.174Z,95533.00
2023-05-14T20:13:46.515Z,95533.00
2023-05-14T20:16:32.682Z,95533.00
2023-05-14T20:19:20.127Z,95538.00
2023-05-14T20:22:06.682Z,95536.00
2023-05-14T20:24:52.885Z,95538.00
2023-05-14T20:27:41.273Z,95529.00
2023-05-14T20:30:28.470Z,95529.00
2023-05-14T20:33:16.066Z,95525.00
2023-05-14T20:36:04.488Z,95533.00
2023-05-14T20:38:50.428Z,95524.00
2023-05-14T20:41:36.089Z,95530.00
2023-05-14T20:44:22.163Z,95529.00
2023-05-14T20:47:08.472Z,95527.00
2023-05-14T20:49:54.974Z,95525.00
2023-05-14T20:52:40.753Z,95525.00
2023-05-14T20:55:27.291Z,95519.00
2023-05-14T20:58:13.335Z,95521.00
2023-05-14T21:01:00.408Z,95514.00
2023-05-14T21:03:46.502Z,95522.00
2023-05-14T21:06:34.999Z,95518.00
2023-05-14T21:09:27.264Z,95522.00
2023-05-14T21:12:13.537Z,95515.00
2023-05-14T21:14:59.271Z,95516.00
2023-05-14T21:17:45.012Z,95517.00
2023-05-14T21:20:30.864Z,95509.00
2023-05-14T21:23:16.423Z,95514.00
2023-05-14T21:26:02.392Z,95508.00
2023-05-14T21:28:49.274Z,95503.00
2023-05-14T21:31:38.000Z,95491.00
2023-05-14T21:34:24.053Z,95500.00
2023-05-14T21:37:10.131Z,95499.00
2023-05-14T21:39:55.805Z,95504.00
2023-05-14T21:42:41.598Z,95503.00
2023-05-14T21:45:27.785Z,95500.00
2023-05-14T21:48:13.903Z,95495.00
2023-05-14T21:50:59.827Z,95493.00
2023-05-14T21:53:46.241Z,95498.00
2023-05-14T21:56:32.568Z,95498.00
2023-05-14T21:59:18.463Z,95496.00
2023-05-14T22:02:07.429Z,95494.00
2023-05-14T22:04:53.939Z,95496.00
2023-05-14T22:07:39.704Z,95495.00
2023-05-14T22:10:25.451Z,95495.00
2023-05-14T22:13:12.018Z,95487.00
2023-05-14T22:16:11.680Z,95485.00
2023-05-14T22:19:00.088Z,95492.00
2023-05-14T22:21:46.389Z,95495.00
2023-05-14T22:24:32.458Z,95499.00
2023-05-14T22:27:18.652Z,95499.00
2023-05-14T22:30:05.360Z,95502.00
2023-05-14T22:32:51.078Z,95496.00
2023-05-14T22:35:37.111Z,95501.00
2023-05-14T22:38:22.662Z,95499.00
2023-05-14T22:41:08.433Z,95495.00
2023-05-14T22:43:54.712Z,95490.00
2023-05-14T22:46:40.910Z,95486.00
2023-05-14T22:49:26.908Z,95482.00
2023-05-14T22:52:12.279Z,95477.00
2023-05-14T22:54:59.181Z,95470.00
2023-05-14T22:57:45.108Z,95470.00
2023-05-14T23:00:30.524Z,95468.00
2023-05-14T23:03:16.307Z,95468.00
2023-05-14T23:06:02.242Z,95462.00
2023-05-14T23:08:48.514Z,95465.00
2023-05-14T23:11:35.747Z,95460.00
2023-05-14T23:14:21.666Z,95463.00
2023-05-14T23:17:07.248Z,95464.00
2023-05-14T23:19:53.507Z,95459.00
2023-05-14T23:22:40.830Z,95460.00
2023-05-14T23:25:26.678Z,95460.00
2023-05-14T23:28:14.972Z,95446.00
2023-05-14T23:31:00.888Z,95451.00
2023-05-14T23:33:46.946Z,95446.00
2023-05-14T23:36:33.087Z,95446.00
2023-05-14T23:39:18.893Z,95444.00
2023-05-14T23:42:04.935Z,95439.00
2023-05-14T23:44:50.570Z,95434.00
2023-05-14T23:47:36.559Z,95443.00
2023-05-14T23:50:22.594Z,95439.00
2023-05-14T23:53:10.931Z,95436.00
2023-05-14T23:55:56.670Z,95433.00
2023-05-14T23:58:42.786Z,95424.00
